Time,TemperatureF,DewpointF,PressureIn,WindDirection,WindDirectionDegrees,WindSpeedMPH,WindSpeedGustMPH,Humidity,HourlyPrecipIn,Conditions,Clouds,dailyrainin,SolarRadiationWatts/m^2,SoftwareType,DateUTC
2013-05-17 00:00:00,57.9,54.3,30.03,SE,130,0.0,0.0,88,0.00,,,0.00,0,HR-IXPWINDi_r2_v1.2.,2013-05-17 04:00:00,
2013-05-17 00:01:00,57.9,54.3,30.03,SE,130,0.0,0.0,88,0.00,,,0.00,0,HR-IXPWINDi_r2_v1.2.,2013-05-17 04:01:00,
2013-05-17 00:06:00,57.4,53.5,30.03,SE,130,0.0,0.0,87,0.00,,,0.00,0,HR-IXPWINDi_r2_v1.2.,2013-05-17 04:06:00,
2013-05-17 00:11:00,56.1,52.8,30.03,SE,130,0.0,1.0,89,0.00,,,0.00,0,HR-IXPWINDi_r2_v1.2.,2013-05-17 04:11:00,
2013-05-17 00:16:00,55.7,53.0,30.03,SE,130,0.0,1.0,91,0.00,,,0.00,0,HR-IXPWINDi_r2_v1.2.,2013-05-17 04:16:00,
2013-05-17 00:21:00,55.5,52.8,30.03,SE,130,0.0,1.0,91,0.00,,,0.00,0,HR-IXPWINDi_r2_v1.2.,2013-05-17 04:21:00,
2013-05-17 00:27:00,55.2,52.6,30.03,SE,130,0.0,1.0,91,0.00,,,0.00,0,HR-IXPWINDi_r2_v1.2.,2013-05-17 04:27:00,
2013-05-17 00:32:00,55.0,52.7,30.03,SE,130,0.0,1.0,92,0.00,,,0.00,0,HR-IXPWINDi_r2_v1.2.,2013-05-17 04:32:00,
2013-05-17 00:37:00,55.4,53.0,30.03,SE,130,0.0,0.0,92,0.00,,,0.00,0,HR-IXPWINDi_r2_v1.2.,2013-05-17 04:37:00,
2013-05-17 00:43:00,55.8,53.1,30.03,SE,130,0.0,0.0,91,0.00,,,0.00,0,HR-IXPWINDi_r2_v1.2.,2013-05-17 04:43:00,
2013-05-17 00:48:00,55.5,52.5,30.03,SE,130,0.0,0.0,90,0.00,,,0.00,0,HR-IXPWINDi_r2_v1.2.,2013-05-17 04:48:00,
2013-05-17 00:53:00,55.6,52.9,30.03,SE,130,0.0,0.0,91,0.00,,,0.00,0,HR-IXPWINDi_r2_v1.2.,2013-05-17 04:53:00,
2013-05-17 00:58:00,55.3,52.4,30.02,SE,130,0.0,1.0,90,0.00,,,0.00,0,HR-IXPWINDi_r2_v1.2.,2013-05-17 04:58:00,
2013-05-17 01:03:00,55.1,52.2,30.02,SE,130,0.0,1.0,90,0.00,,,0.00,0,HR-IXPWINDi_r2_v1.2.,2013-05-17 05:03:00,
2013-05-17 01:08:00,54.6,52.0,30.02,SE,130,1.0,1.0,91,0.00,,,0.00,0,HR-IXPWINDi_r2_v1.2.,2013-05-17 05:08:00,
2013-05-17 01:13:00,54.3,52.0,30.02,SE,130,0.0,1.0,92,0.00,,,0.00,0,HR-IXPWINDi_r2_v1.2.,2013-05-17 05:13:00,
2013-05-17 01:19:00,54.3,52.0,30.02,SE,130,0.0,2.0,92,0.00,,,0.00,0,HR-IXPWINDi_r2_v1.2.,2013-05-17 05:19:00,
2013-05-17 01:24:00,54.7,52.4,30.02,SE,130,0.0,2.0,92,0.00,,,0.00,0,HR-IXPWINDi_r2_v1.2.,2013-05-17 05:24:00,
2013-05-17 01:29:00,54.2,51.9,30.02,SE,130,0.0,2.0,92,0.00,,,0.00,0,HR-IXPWINDi_r2_v1.2.,2013-05-17 05:29:00,
2013-05-17 01:34:00,54.8,52.5,30.02,SE,130,0.0,0.0,92,0.00,,,0.00,0,HR-IXPWINDi_r2_v1.2.,2013-05-17 05:34:00,
2013-05-17 01:40:00,54.3,51.7,30.02,SE,130,0.0,0.0,91,0.00,,,0.00,0,HR-IXPWINDi_r2_v1.2.,2013-05-17 05:40:00,
2013-05-17 01:45:00,54.1,51.8,30.02,SE,130,0.0,0.0,92,0.00,,,0.00,0,HR-IXPWINDi_r2_v1.2.,2013-05-17 05:45:00,
2013-05-17 01:50:00,54.2,51.9,30.02,SE,130,0.0,0.0,92,0.00,,,0.00,0,HR-IXPWINDi_r2_v1.2.,2013-05-17 05:50:00,
2013-05-17 01:55:00,53.6,51.3,30.02,SE,130,0.0,0.0,92,0.00,,,0.00,0,HR-IXPWINDi_r2_v1.2.,2013-05-17 05:55:00,
2013-05-17 02:00:00,53.6,51.6,30.02,SE,130,0.0,0.0,93,0.00,,,0.00,0,HR-IXPWINDi_r2_v1.2.,2013-05-17 06:00:00,
2013-05-17 02:06:00,53.4,51.1,30.02,SE,130,0.0,0.0,92,0.00,,,0.00,0,HR-IXPWINDi_r2_v1.2.,2013-05-17 06:06:00,
2013-05-17 02:11:00,53.1,51.1,30.02,SE,130,0.0,0.0,93,0.00,,,0.00,0,HR-IXPWINDi_r2_v1.2.,2013-05-17 06:11:00,
2013-05-17 02:16:00,52.8,50.8,30.02,SE,130,0.0,0.0,93,0.00,,,0.00,0,HR-IXPWINDi_r2_v1.2.,2013-05-17 06:16:00,
2013-05-17 02:21:00,53.1,51.4,30.02,SE,130,0.0,0.0,94,0.00,,,0.00,0,HR-IXPWINDi_r2_v1.2.,2013-05-17 06:21:00,
2013-05-17 02:26:00,53.2,51.2,30.02,SE,130,0.0,0.0,93,0.00,,,0.00,0,HR-IXPWINDi_r2_v1.2.,2013-05-17 06:26:00,
2013-05-17 02:32:00,52.8,50.8,30.02,SE,130,0.0,0.0,93,0.00,,,0.00,0,HR-IXPWINDi_r2_v1.2.,2013-05-17 06:32:00,
2013-05-17 02:37:00,52.8,51.1,30.02,SE,130,0.0,1.0,94,0.00,,,0.00,0,HR-IXPWINDi_r2_v1.2.,2013-05-17 06:37:00,
2013-05-17 02:42:00,53.1,51.4,30.03,SE,130,1.0,1.0,94,0.00,,,0.00,0,HR-IXPWINDi_r2_v1.2.,2013-05-17 06:42:00,
2013-05-17 02:47:00,52.8,51.1,30.02,SE,130,0.0,2.0,94,0.00,,,0.00,0,HR-IXPWINDi_r2_v1.2.,2013-05-17 06:47:00,
2013-05-17 02:52:00,53.1,51.4,30.03,SE,130,0.0,2.0,94,0.00,,,0.00,0,HR-IXPWINDi_r2_v1.2.,2013-05-17 06:52:00,
2013-05-17 02:58:00,53.1,51.4,30.03,SE,130,1.0,1.0,94,0.00,,,0.00,0,HR-IXPWINDi_r2_v1.2.,2013-05-17 06:58:00,
2013-05-17 03:03:00,53.0,51.3,30.03,SE,130,0.0,2.0,94,0.00,,,0.00,0,HR-IXPWINDi_r2_v1.2.,2013-05-17 07:03:00,
2013-05-17 03:08:00,52.7,51.0,30.03,SE,130,2.0,2.0,94,0.00,,,0.00,0,HR-IXPWINDi_r2_v1.2.,2013-05-17 07:08:00,
2013-05-17 03:13:00,53.1,51.6,30.03,SE,130,0.0,4.0,95,0.00,,,0.00,0,HR-IXPWINDi_r2_v1.2.,2013-05-17 07:13:00,
2013-05-17 03:19:00,53.1,51.6,30.03,SE,130,0.0,4.0,95,0.00,,,0.00,0,HR-IXPWINDi_r2_v1.2.,2013-05-17 07:19:00,
2013-05-17 03:24:00,53.0,51.5,30.03,SE,130,0.0,1.0,95,0.00,,,0.00,0,HR-IXPWINDi_r2_v1.2.,2013-05-17 07:24:00,
2013-05-17 03:29:00,52.8,51.1,30.03,SE,130,0.0,1.0,94,0.00,,,0.00,0,HR-IXPWINDi_r2_v1.2.,2013-05-17 07:29:00,
2013-05-17 03:34:00,52.3,50.8,30.03,SE,130,4.0,4.0,95,0.00,,,0.00,0,HR-IXPWINDi_r2_v1.2.,2013-05-17 07:34:00,
2013-05-17 03:40:00,52.4,50.9,30.03,SE,130,1.0,4.0,95,0.00,,,0.00,0,HR-IXPWINDi_r2_v1.2.,2013-05-17 07:40:00,
2013-05-17 03:45:00,53.1,51.6,30.03,SE,130,0.0,4.0,95,0.00,,,0.00,0,HR-IXPWINDi_r2_v1.2.,2013-05-17 07:45:00,
2013-05-17 03:50:00,52.7,51.2,30.04,SE,130,2.0,2.0,95,0.00,,,0.00,0,HR-IXPWINDi_r2_v1.2.,2013-05-17 07:50:00,
2013-05-17 03:56:00,52.9,51.4,30.04,SE,130,0.0,2.0,95,0.00,,,0.00,0,HR-IXPWINDi_r2_v1.2.,2013-05-17 07:56:00,
2013-05-17 04:01:00,52.8,51.3,30.04,SE,130,0.0,1.0,95,0.00,,,0.00,0,HR-IXPWINDi_r2_v1.2.,2013-05-17 08:01:00,
2013-05-17 04:06:00,52.1,50.4,30.04,SE,130,1.0,1.0,94,0.00,,,0.00,0,HR-IXPWINDi_r2_v1.2.,2013-05-17 08:06:00,
2013-05-17 04:12:00,52.2,50.7,30.04,SE,130,0.0,2.0,95,0.00,,,0.00,0,HR-IXPWINDi_r2_v1.2.,2013-05-17 08:12:00,
2013-05-17 04:17:00,52.5,51.0,30.04,SE,130,0.0,2.0,95,0.00,,,0.00,0,HR-IXPWINDi_r2_v1.2.,2013-05-17 08:17:00,
2013-05-17 04:22:00,52.3,50.8,30.04,SE,130,0.0,1.0,95,0.00,,,0.00,0,HR-IXPWINDi_r2_v1.2.,2013-05-17 08:22:00,
2013-05-17 04:27:00,52.1,50.6,30.05,SE,130,0.0,1.0,95,0.00,,,0.00,0,HR-IXPWINDi_r2_v1.2.,2013-05-17 08:27:00,
2013-05-17 04:32:00,51.8,50.3,30.05,SE,130,0.0,1.0,95,0.00,,,0.00,0,HR-IXPWINDi_r2_v1.2.,2013-05-17 08:32:00,
2013-05-17 04:37:00,51.8,50.3,30.05,SE,130,0.0,2.0,95,0.00,,,0.00,0,HR-IXPWINDi_r2_v1.2.,2013-05-17 08:37:00,
2013-05-17 04:42:00,51.9,50.4,30.05,SE,130,0.0,2.0,95,0.00,,,0.00,0,HR-IXPWINDi_r2_v1.2.,2013-05-17 08:42:00,
2013-05-17 04:47:00,52.1,50.6,30.05,SE,130,0.0,1.0,95,0.00,,,0.00,0,HR-IXPWINDi_r2_v1.2.,2013-05-17 08:47:00,
2013-05-17 04:53:00,52.2,50.7,30.05,SE,130,0.0,0.0,95,0.00,,,0.00,0,HR-IXPWINDi_r2_v1.2.,2013-05-17 08:53:00,
2013-05-17 04:58:00,52.1,50.6,30.05,SE,130,0.0,2.0,95,0.00,,,0.00,0,HR-IXPWINDi_r2_v1.2.,2013-05-17 08:58:00,
2013-05-17 05:03:00,51.6,49.9,30.05,SE,130,0.0,2.0,94,0.00,,,0.00,0,HR-IXPWINDi_r2_v1.2.,2013-05-17 09:03:00,
2013-05-17 05:08:00,51.4,50.0,30.06,SE,130,0.0,0.0,95,0.00,,,0.00,0,HR-IXPWINDi_r2_v1.2.,2013-05-17 09:08:00,
2013-05-17 05:14:00,51.5,50.0,30.06,SE,130,0.0,1.0,95,0.00,,,0.00,0,HR-IXPWINDi_r2_v1.2.,2013-05-17 09:14:00,
2013-05-17 05:19:00,51.4,50.0,30.06,SE,130,0.0,1.0,95,0.00,,,0.00,0,HR-IXPWINDi_r2_v1.2.,2013-05-17 09:19:00,
2013-05-17 05:24:00,51.3,49.9,30.06,SE,130,0.0,0.0,95,0.00,,,0.00,0,HR-IXPWINDi_r2_v1.2.,2013-05-17 09:24:00,
2013-05-17 05:29:00,51.1,49.7,30.06,SE,130,0.0,1.0,95,0.00,,,0.00,0,HR-IXPWINDi_r2_v1.2.,2013-05-17 09:29:00,
2013-05-17 05:34:00,51.0,49.6,30.06,SE,130,0.0,1.0,95,0.00,,,0.00,0,HR-IXPWINDi_r2_v1.2.,2013-05-17 09:34:00,
2013-05-17 05:40:00,51.3,50.1,30.06,SE,130,0.0,0.0,96,0.00,,,0.00,0,HR-IXPWINDi_r2_v1.2.,2013-05-17 09:40:00,
2013-05-17 05:45:00,51.7,50.5,30.06,SE,130,0.0,0.0,96,0.00,,,0.00,0,HR-IXPWINDi_r2_v1.2.,2013-05-17 09:45:00,
2013-05-17 05:50:00,51.9,50.7,30.06,SE,130,0.0,0.0,96,0.00,,,0.00,0,HR-IXPWINDi_r2_v1.2.,2013-05-17 09:50:00,
2013-05-17 05:55:00,52.1,50.9,30.06,SE,130,0.0,1.0,96,0.00,,,0.00,0,HR-IXPWINDi_r2_v1.2.,2013-05-17 09:55:00,
2013-05-17 06:00:00,52.1,50.9,30.06,SE,130,0.0,1.0,96,0.00,,,0.00,0,HR-IXPWINDi_r2_v1.2.,2013-05-17 10:00:00,
2013-05-17 06:06:00,52.3,51.1,30.07,SE,130,0.0,1.0,96,0.00,,,0.00,0,HR-IXPWINDi_r2_v1.2.,2013-05-17 10:06:00,
2013-05-17 06:11:00,52.3,51.1,30.07,NNE,28,3.0,3.0,96,0.00,,,0.00,0,HR-IXPWINDi_r2_v1.2.,2013-05-17 10:11:00,
2013-05-17 06:16:00,52.3,51.1,30.07,NNE,20,0.0,3.0,96,0.00,,,0.00,0,HR-IXPWINDi_r2_v1.2.,2013-05-17 10:16:00,
2013-05-17 06:21:00,51.8,50.6,30.08,NNE,20,0.0,3.0,96,0.00,,,0.00,0,HR-IXPWINDi_r2_v1.2.,2013-05-17 10:21:00,
2013-05-17 06:26:00,52.2,51.0,30.08,NNE,20,0.0,1.0,96,0.00,,,0.00,0,HR-IXPWINDi_r2_v1.2.,2013-05-17 10:26:00,
2013-05-17 06:31:00,52.5,51.3,30.08,NNE,20,0.0,0.0,96,0.00,,,0.00,7,HR-IXPWINDi_r2_v1.2.,2013-05-17 10:31:00,
2013-05-17 06:36:00,52.4,51.2,30.08,NNE,20,0.0,0.0,96,0.00,,,0.00,11,HR-IXPWINDi_r2_v1.2.,2013-05-17 10:36:00,
2013-05-17 06:42:00,52.5,51.3,30.08,NNE,20,0.0,0.0,96,0.00,,,0.00,18,HR-IXPWINDi_r2_v1.2.,2013-05-17 10:42:00,
2013-05-17 06:47:00,52.4,51.2,30.08,NNE,30,0.0,2.0,96,0.00,,,0.00,26,HR-IXPWINDi_r2_v1.2.,2013-05-17 10:47:00,
2013-05-17 06:52:00,52.7,51.5,30.08,NE,38,0.0,2.0,96,0.00,,,0.00,37,HR-IXPWINDi_r2_v1.2.,2013-05-17 10:52:00,
2013-05-17 06:57:00,53.0,51.8,30.08,NE,38,0.0,1.0,96,0.00,,,0.00,39,HR-IXPWINDi_r2_v1.2.,2013-05-17 10:57:00,
2013-05-17 07:02:00,53.5,52.3,30.08,NE,38,0.0,1.0,96,0.00,,,0.00,40,HR-IXPWINDi_r2_v1.2.,2013-05-17 11:02:00,
2013-05-17 07:07:00,53.8,52.6,30.08,NE,39,0.0,1.0,96,0.00,,,0.00,40,HR-IXPWINDi_r2_v1.2.,2013-05-17 11:07:00,
2013-05-17 07:12:00,54.2,53.0,30.08,ESE,103,4.0,4.0,96,0.00,,,0.00,39,HR-IXPWINDi_r2_v1.2.,2013-05-17 11:12:00,
2013-05-17 07:18:00,54.5,53.3,30.08,SE,128,4.0,5.0,96,0.00,,,0.00,42,HR-IXPWINDi_r2_v1.2.,2013-05-17 11:18:00,
2013-05-17 07:23:00,54.9,53.7,30.08,SE,130,0.0,5.0,96,0.00,,,0.00,47,HR-IXPWINDi_r2_v1.2.,2013-05-17 11:23:00,
2013-05-17 07:28:00,55.2,54.0,30.08,SE,130,2.0,4.0,96,0.00,,,0.00,40,HR-IXPWINDi_r2_v1.2.,2013-05-17 11:28:00,
2013-05-17 07:33:00,55.5,54.0,30.08,SE,130,0.0,4.0,95,0.00,,,0.00,37,HR-IXPWINDi_r2_v1.2.,2013-05-17 11:33:00,
2013-05-17 07:38:00,55.7,54.2,30.09,SE,130,0.0,2.0,95,0.00,,,0.00,33,HR-IXPWINDi_r2_v1.2.,2013-05-17 11:38:00,
2013-05-17 07:43:00,56.1,54.6,30.08,SE,130,2.0,4.0,95,0.00,,,0.00,40,HR-IXPWINDi_r2_v1.2.,2013-05-17 11:43:00,
2013-05-17 07:48:00,56.2,54.7,30.09,SE,130,0.0,4.0,95,0.00,,,0.00,49,HR-IXPWINDi_r2_v1.2.,2013-05-17 11:48:00,
2013-05-17 07:54:00,56.4,54.9,30.09,SE,130,0.0,4.0,95,0.00,,,0.00,53,HR-IXPWINDi_r2_v1.2.,2013-05-17 11:54:00,
2013-05-17 07:59:00,56.7,54.9,30.10,SE,130,0.0,2.0,94,0.00,,,0.00,56,HR-IXPWINDi_r2_v1.2.,2013-05-17 11:59:00,
2013-05-17 08:04:00,57.1,55.3,30.10,SE,130,1.0,4.0,94,0.00,,,0.00,54,HR-IXPWINDi_r2_v1.2.,2013-05-17 12:04:00,
2013-05-17 08:09:00,56.7,54.9,30.10,SSE,156,1.0,5.0,94,0.00,,,0.00,60,HR-IXPWINDi_r2_v1.2.,2013-05-17 12:09:00,
2013-05-17 08:15:00,56.9,55.1,30.10,SSE,156,0.0,5.0,94,0.00,,,0.00,62,HR-IXPWINDi_r2_v1.2.,2013-05-17 12:15:00,
2013-05-17 08:20:00,57.1,55.3,30.10,SSE,156,0.0,2.0,94,0.00,,,0.00,83,HR-IXPWINDi_r2_v1.2.,2013-05-17 12:20:00,
2013-05-17 08:25:00,57.6,55.5,30.10,SSE,156,0.0,1.0,93,0.00,,,0.00,90,HR-IXPWINDi_r2_v1.2.,2013-05-17 12:25:00,
2013-05-17 08:31:00,57.7,55.6,30.10,SSE,156,0.0,1.0,93,0.00,,,0.00,100,HR-IXPWINDi_r2_v1.2.,2013-05-17 12:31:00,
2013-05-17 08:36:00,57.7,55.3,30.10,SSE,156,0.0,4.0,92,0.00,,,0.00,111,HR-IXPWINDi_r2_v1.2.,2013-05-17 12:36:00,
2013-05-17 08:41:00,57.8,55.4,30.10,SSE,156,0.0,5.0,92,0.00,,,0.00,109,HR-IXPWINDi_r2_v1.2.,2013-05-17 12:41:00,
2013-05-17 08:46:00,58.2,55.8,30.10,SSE,156,0.0,5.0,92,0.00,,,0.00,107,HR-IXPWINDi_r2_v1.2.,2013-05-17 12:46:00,
2013-05-17 08:51:00,58.5,55.8,30.10,SSE,156,0.0,1.0,91,0.00,,,0.00,111,HR-IXPWINDi_r2_v1.2.,2013-05-17 12:51:00,
2013-05-17 08:57:00,58.7,56.0,30.10,SSE,156,0.0,4.0,91,0.00,,,0.00,113,HR-IXPWINDi_r2_v1.2.,2013-05-17 12:57:00,
2013-05-17 09:02:00,59.1,56.4,30.11,SSE,156,0.0,4.0,91,0.00,,,0.00,123,HR-IXPWINDi_r2_v1.2.,2013-05-17 13:02:00,
2013-05-17 09:07:00,59.1,56.4,30.10,South,184,5.0,6.0,91,0.00,,,0.00,141,HR-IXPWINDi_r2_v1.2.,2013-05-17 13:07:00,
2013-05-17 09:12:00,59.0,56.3,30.11,SSW,196,4.0,6.0,91,0.00,,,0.00,155,HR-IXPWINDi_r2_v1.2.,2013-05-17 13:12:00,
2013-05-17 09:18:00,59.2,56.5,30.11,SSW,195,0.0,6.0,91,0.00,,,0.00,174,HR-IXPWINDi_r2_v1.2.,2013-05-17 13:18:00,
2013-05-17 09:23:00,59.6,56.6,30.11,SSW,195,2.0,6.0,90,0.00,,,0.00,206,HR-IXPWINDi_r2_v1.2.,2013-05-17 13:23:00,
2013-05-17 09:28:00,59.4,56.1,30.11,SSW,195,2.0,4.0,89,0.00,,,0.00,227,HR-IXPWINDi_r2_v1.2.,2013-05-17 13:28:00,
2013-05-17 09:33:00,60.2,56.9,30.11,SSW,195,0.0,5.0,89,0.00,,,0.00,260,HR-IXPWINDi_r2_v1.2.,2013-05-17 13:33:00,
2013-05-17 09:38:00,60.8,56.8,30.10,SSW,195,2.0,5.0,87,0.00,,,0.00,343,HR-IXPWINDi_r2_v1.2.,2013-05-17 13:38:00,
2013-05-17 09:43:00,61.0,56.7,30.10,SSW,194,1.0,5.0,86,0.00,,,0.00,496,HR-IXPWINDi_r2_v1.2.,2013-05-17 13:43:00,
2013-05-17 09:48:00,62.1,57.5,30.10,SSW,195,1.0,5.0,85,0.00,,,0.00,364,HR-IXPWINDi_r2_v1.2.,2013-05-17 13:48:00,
2013-05-17 09:54:00,62.9,57.9,30.10,SSW,193,1.0,5.0,84,0.00,,,0.00,584,HR-IXPWINDi_r2_v1.2.,2013-05-17 13:54:00,
2013-05-17 09:59:00,63.4,58.4,30.10,SSW,193,2.0,4.0,84,0.00,,,0.00,424,HR-IXPWINDi_r2_v1.2.,2013-05-17 13:59:00,
2013-05-17 10:04:00,63.9,58.6,30.10,SSW,192,2.0,5.0,83,0.00,,,0.00,561,HR-IXPWINDi_r2_v1.2.,2013-05-17 14:04:00,
2013-05-17 10:09:00,64.8,58.8,30.09,SSW,192,3.0,5.0,81,0.00,,,0.00,626,HR-IXPWINDi_r2_v1.2.,2013-05-17 14:09:00,
2013-05-17 10:14:00,65.6,59.2,30.09,South,191,1.0,6.0,80,0.00,,,0.00,357,HR-IXPWINDi_r2_v1.2.,2013-05-17 14:14:00,
2013-05-17 10:19:00,66.1,59.7,30.09,SSW,192,4.0,6.0,80,0.00,,,0.00,396,HR-IXPWINDi_r2_v1.2.,2013-05-17 14:19:00,
2013-05-17 10:24:00,66.7,60.3,30.09,SSW,195,8.0,8.0,80,0.00,,,0.00,696,HR-IXPWINDi_r2_v1.2.,2013-05-17 14:24:00,
2013-05-17 10:29:00,67.4,60.2,30.10,SSW,197,5.0,8.0,78,0.00,,,0.00,810,HR-IXPWINDi_r2_v1.2.,2013-05-17 14:29:00,
2013-05-17 10:35:00,68.1,60.2,30.10,SSW,200,2.0,9.0,76,0.00,,,0.00,364,HR-IXPWINDi_r2_v1.2.,2013-05-17 14:35:00,
2013-05-17 10:40:00,68.0,60.8,30.10,SSW,193,5.0,9.0,78,0.00,,,0.00,315,HR-IXPWINDi_r2_v1.2.,2013-05-17 14:40:00,
2013-05-17 10:45:00,68.5,61.3,30.10,South,188,2.0,8.0,78,0.00,,,0.00,578,HR-IXPWINDi_r2_v1.2.,2013-05-17 14:45:00,
2013-05-17 10:50:00,69.2,60.9,30.10,South,182,3.0,8.0,75,0.00,,,0.00,733,HR-IXPWINDi_r2_v1.2.,2013-05-17 14:50:00,
2013-05-17 10:56:00,69.8,61.1,30.09,South,191,5.0,8.0,74,0.00,,,0.00,777,HR-IXPWINDi_r2_v1.2.,2013-05-17 14:56:00,
2013-05-17 11:01:00,69.8,60.7,30.09,SSW,193,2.0,9.0,73,0.00,,,0.00,745,HR-IXPWINDi_r2_v1.2.,2013-05-17 15:01:00,
2013-05-17 11:06:00,70.9,61.4,30.09,SSE,165,1.0,9.0,72,0.00,,,0.00,729,HR-IXPWINDi_r2_v1.2.,2013-05-17 15:06:00,
2013-05-17 11:11:00,71.4,61.4,30.09,South,177,4.0,9.0,71,0.00,,,0.00,735,HR-IXPWINDi_r2_v1.2.,2013-05-17 15:11:00,
2013-05-17 11:16:00,71.9,60.7,30.09,South,186,3.0,10.0,68,0.00,,,0.00,798,HR-IXPWINDi_r2_v1.2.,2013-05-17 15:16:00,
2013-05-17 11:21:00,72.2,59.7,30.09,South,183,6.0,10.0,65,0.00,,,0.00,826,HR-IXPWINDi_r2_v1.2.,2013-05-17 15:21:00,
2013-05-17 11:27:00,73.3,60.3,30.09,SE,142,5.0,12.0,64,0.00,,,0.00,838,HR-IXPWINDi_r2_v1.2.,2013-05-17 15:27:00,
2013-05-17 11:32:00,73.3,59.9,30.09,South,190,6.0,12.0,63,0.00,,,0.00,846,HR-IXPWINDi_r2_v1.2.,2013-05-17 15:32:00,
2013-05-17 11:37:00,73.3,60.3,30.09,South,189,3.0,10.0,64,0.00,,,0.00,874,HR-IXPWINDi_r2_v1.2.,2013-05-17 15:37:00,
2013-05-17 11:42:00,73.7,59.8,30.09,SSE,150,7.0,10.0,62,0.00,,,0.00,904,HR-IXPWINDi_r2_v1.2.,2013-05-17 15:42:00,
2013-05-17 11:47:00,73.8,59.5,30.09,SE,144,4.0,10.0,61,0.00,,,0.00,823,HR-IXPWINDi_r2_v1.2.,2013-05-17 15:47:00,
2013-05-17 11:53:00,73.9,59.6,30.09,SSE,161,2.0,9.0,61,0.00,,,0.00,932,HR-IXPWINDi_r2_v1.2.,2013-05-17 15:53:00,
2013-05-17 11:58:00,74.2,59.4,30.09,South,178,5.0,11.0,60,0.00,,,0.00,893,HR-IXPWINDi_r2_v1.2.,2013-05-17 15:58:00,
2013-05-17 12:03:00,74.9,59.6,30.09,NNW,343,4.0,11.0,59,0.00,,,0.00,751,HR-IXPWINDi_r2_v1.2.,2013-05-17 16:03:00,
2013-05-17 12:08:00,75.2,59.4,30.08,NNW,334,3.0,9.0,58,0.00,,,0.00,802,HR-IXPWINDi_r2_v1.2.,2013-05-17 16:08:00,
2013-05-17 12:14:00,76.2,60.3,30.08,NNW,336,2.0,7.0,58,0.00,,,0.00,563,HR-IXPWINDi_r2_v1.2.,2013-05-17 16:14:00,
2013-05-17 12:19:00,76.0,62.0,30.08,NNW,343,1.0,8.0,62,0.00,,,0.00,601,HR-IXPWINDi_r2_v1.2.,2013-05-17 16:19:00,
2013-05-17 12:24:00,76.1,61.2,30.08,NNW,342,1.0,8.0,60,0.00,,,0.00,882,HR-IXPWINDi_r2_v1.2.,2013-05-17 16:24:00,
2013-05-17 12:29:00,77.1,60.6,30.08,SSW,194,2.0,7.0,57,0.00,,,0.00,329,HR-IXPWINDi_r2_v1.2.,2013-05-17 16:29:00,
2013-05-17 12:34:00,76.0,61.1,30.08,NW,306,2.0,7.0,60,0.00,,,0.00,362,HR-IXPWINDi_r2_v1.2.,2013-05-17 16:34:00,
2013-05-17 12:39:00,75.7,60.3,30.08,SSE,167,4.0,7.0,59,0.00,,,0.00,584,HR-IXPWINDi_r2_v1.2.,2013-05-17 16:39:00,
2013-05-17 12:45:00,75.7,58.8,30.07,SE,142,6.0,11.0,56,0.00,,,0.00,309,HR-IXPWINDi_r2_v1.2.,2013-05-17 16:45:00,
2013-05-17 12:50:00,75.8,58.9,30.07,SSW,196,6.0,11.0,56,0.00,,,0.00,424,HR-IXPWINDi_r2_v1.2.,2013-05-17 16:50:00,
2013-05-17 12:55:00,75.9,58.5,30.07,SSW,213,1.0,12.0,55,0.00,,,0.00,401,HR-IXPWINDi_r2_v1.2.,2013-05-17 16:55:00,
2013-05-17 13:00:00,76.2,58.3,30.07,SSW,200,11.0,12.0,54,0.00,,,0.00,360,HR-IXPWINDi_r2_v1.2.,2013-05-17 17:00:00,
2013-05-17 13:05:00,76.7,59.8,30.07,SSW,207,6.0,13.0,56,0.00,,,0.00,350,HR-IXPWINDi_r2_v1.2.,2013-05-17 17:05:00,
2013-05-17 13:11:00,76.2,59.3,30.07,South,182,3.0,13.0,56,0.00,,,0.00,316,HR-IXPWINDi_r2_v1.2.,2013-05-17 17:11:00,
2013-05-17 13:16:00,76.1,59.2,30.07,SSW,199,12.0,14.0,56,0.00,,,0.00,671,HR-IXPWINDi_r2_v1.2.,2013-05-17 17:16:00,
2013-05-17 13:21:00,76.5,59.6,30.06,SW,220,1.0,14.0,56,0.00,,,0.00,369,HR-IXPWINDi_r2_v1.2.,2013-05-17 17:21:00,
2013-05-17 13:26:00,76.5,58.6,30.07,SSW,197,6.0,14.0,54,0.00,,,0.00,826,HR-IXPWINDi_r2_v1.2.,2013-05-17 17:26:00,
2013-05-17 13:31:00,77.0,59.5,30.06,SSW,210,8.0,14.0,55,0.00,,,0.00,877,HR-IXPWINDi_r2_v1.2.,2013-05-17 17:31:00,
2013-05-17 13:37:00,76.9,58.9,30.06,SSW,199,3.0,14.0,54,0.00,,,0.00,411,HR-IXPWINDi_r2_v1.2.,2013-05-17 17:37:00,
2013-05-17 13:42:00,77.5,59.0,30.06,SE,141,0.0,10.0,53,0.00,,,0.00,506,HR-IXPWINDi_r2_v1.2.,2013-05-17 17:42:00,
2013-05-17 13:48:00,78.5,58.3,30.06,NNW,333,3.0,8.0,50,0.00,,,0.00,608,HR-IXPWINDi_r2_v1.2.,2013-05-17 17:48:00,
2013-05-17 13:53:00,79.5,59.7,30.05,SSW,210,3.0,10.0,51,0.00,,,0.00,904,HR-IXPWINDi_r2_v1.2.,2013-05-17 17:53:00,
2013-05-17 13:58:00,78.4,59.3,30.06,SE,146,7.0,14.0,52,0.00,,,0.00,947,HR-IXPWINDi_r2_v1.2.,2013-05-17 17:58:00,
2013-05-17 14:03:00,78.5,59.4,30.05,ESE,112,6.0,14.0,52,0.00,,,0.00,434,HR-IXPWINDi_r2_v1.2.,2013-05-17 18:03:00,
2013-05-17 14:08:00,79.3,59.6,30.05,SE,126,13.0,13.0,51,0.00,,,0.00,1104,HR-IXPWINDi_r2_v1.2.,2013-05-17 18:08:00,
2013-05-17 14:13:00,79.8,58.3,30.05,SSE,157,0.0,13.0,48,0.00,,,0.00,1104,HR-IXPWINDi_r2_v1.2.,2013-05-17 18:13:00,
2013-05-17 14:19:00,79.6,57.0,30.05,SSW,197,12.0,18.0,46,0.00,,,0.00,559,HR-IXPWINDi_r2_v1.2.,2013-05-17 18:19:00,
2013-05-17 14:24:00,78.2,56.9,30.05,SW,218,6.0,18.0,48,0.00,,,0.00,584,HR-IXPWINDi_r2_v1.2.,2013-05-17 18:24:00,
2013-05-17 14:29:00,78.0,56.7,30.05,South,177,4.0,16.0,48,0.00,,,0.00,439,HR-IXPWINDi_r2_v1.2.,2013-05-17 18:29:00,
2013-05-17 14:34:00,77.9,56.6,30.04,SSW,212,6.0,13.0,48,0.00,,,0.00,504,HR-IXPWINDi_r2_v1.2.,2013-05-17 18:34:00,
2013-05-17 14:39:00,78.2,57.4,30.04,SSW,204,3.0,13.0,49,0.00,,,0.00,728,HR-IXPWINDi_r2_v1.2.,2013-05-17 18:39:00,
2013-05-17 14:45:00,79.3,57.9,30.03,SSW,209,1.0,9.0,48,0.00,,,0.00,817,HR-IXPWINDi_r2_v1.2.,2013-05-17 18:45:00,
2013-05-17 14:50:00,78.7,57.9,30.04,SE,139,12.0,15.0,49,0.00,,,0.00,656,HR-IXPWINDi_r2_v1.2.,2013-05-17 18:50:00,
2013-05-17 14:55:00,79.4,59.1,30.03,SE,128,4.0,18.0,50,0.00,,,0.00,889,HR-IXPWINDi_r2_v1.2.,2013-05-17 18:55:00,
2013-05-17 15:00:00,80.3,58.8,30.03,SE,134,7.0,18.0,48,0.00,,,0.00,895,HR-IXPWINDi_r2_v1.2.,2013-05-17 19:00:00,
2013-05-17 15:05:00,79.6,59.3,30.04,SSE,150,10.0,14.0,50,0.00,,,0.00,851,HR-IXPWINDi_r2_v1.2.,2013-05-17 19:05:00,
2013-05-17 15:10:00,79.6,59.3,30.04,ESE,108,5.0,14.0,50,0.00,,,0.00,867,HR-IXPWINDi_r2_v1.2.,2013-05-17 19:10:00,
2013-05-17 15:16:00,78.9,58.1,30.03,SE,128,9.0,15.0,49,0.00,,,0.00,891,HR-IXPWINDi_r2_v1.2.,2013-05-17 19:16:00,
2013-05-17 15:21:00,78.9,58.1,30.03,ESE,123,12.0,15.0,49,0.00,,,0.00,819,HR-IXPWINDi_r2_v1.2.,2013-05-17 19:21:00,
2013-05-17 15:26:00,79.5,59.2,30.03,SE,130,12.0,14.0,50,0.00,,,0.00,780,HR-IXPWINDi_r2_v1.2.,2013-05-17 19:26:00,
2013-05-17 15:31:00,79.4,59.1,30.03,ESE,123,9.0,13.0,50,0.00,,,0.00,515,HR-IXPWINDi_r2_v1.2.,2013-05-17 19:31:00,
2013-05-17 15:36:00,78.7,59.0,30.03,ESE,123,11.0,15.0,51,0.00,,,0.00,680,HR-IXPWINDi_r2_v1.2.,2013-05-17 19:36:00,
2013-05-17 15:42:00,78.2,58.5,30.03,ESE,115,9.0,17.0,51,0.00,,,0.00,294,HR-IXPWINDi_r2_v1.2.,2013-05-17 19:42:00,
2013-05-17 15:47:00,78.1,60.1,30.03,SE,146,5.0,17.0,54,0.00,,,0.00,348,HR-IXPWINDi_r2_v1.2.,2013-05-17 19:47:00,
2013-05-17 15:52:00,77.9,58.3,30.03,South,180,5.0,16.0,51,0.00,,,0.00,339,HR-IXPWINDi_r2_v1.2.,2013-05-17 19:52:00,
2013-05-17 15:57:00,78.2,58.5,30.02,ESE,116,5.0,13.0,51,0.00,,,0.00,543,HR-IXPWINDi_r2_v1.2.,2013-05-17 19:57:00,
2013-05-17 16:02:00,78.5,59.4,30.02,SE,145,9.0,11.0,52,0.00,,,0.00,791,HR-IXPWINDi_r2_v1.2.,2013-05-17 20:02:00,
2013-05-17 16:07:00,77.8,59.8,30.02,SSW,210,10.0,12.0,54,0.00,,,0.00,373,HR-IXPWINDi_r2_v1.2.,2013-05-17 20:07:00,
2013-05-17 16:13:00,77.5,60.5,30.02,SSW,211,2.0,12.0,56,0.00,,,0.00,255,HR-IXPWINDi_r2_v1.2.,2013-05-17 20:13:00,
2013-05-17 16:18:00,77.3,60.8,30.02,South,186,1.0,10.0,57,0.00,,,0.00,311,HR-IXPWINDi_r2_v1.2.,2013-05-17 20:18:00,
2013-05-17 16:23:00,77.2,59.7,30.02,SSW,207,3.0,14.0,55,0.00,,,0.00,341,HR-IXPWINDi_r2_v1.2.,2013-05-17 20:23:00,
2013-05-17 16:28:00,77.0,60.1,30.02,SSW,213,4.0,17.0,56,0.00,,,0.00,561,HR-IXPWINDi_r2_v1.2.,2013-05-17 20:28:00,
2013-05-17 16:34:00,77.9,61.4,30.02,SE,141,6.0,17.0,57,0.00,,,0.00,503,HR-IXPWINDi_r2_v1.2.,2013-05-17 20:34:00,
2013-05-17 16:39:00,78.0,60.5,30.02,ESE,120,8.0,12.0,55,0.00,,,0.00,306,HR-IXPWINDi_r2_v1.2.,2013-05-17 20:39:00,
2013-05-17 16:44:00,77.3,60.8,30.02,SE,138,4.0,12.0,57,0.00,,,0.00,360,HR-IXPWINDi_r2_v1.2.,2013-05-17 20:44:00,
2013-05-17 16:49:00,78.2,60.7,30.01,North,351,0.0,12.0,55,0.00,,,0.00,561,HR-IXPWINDi_r2_v1.2.,2013-05-17 20:49:00,
2013-05-17 16:54:00,79.3,60.1,30.01,SSE,150,6.0,11.0,52,0.00,,,0.00,490,HR-IXPWINDi_r2_v1.2.,2013-05-17 20:54:00,
2013-05-17 17:00:00,78.0,56.7,30.01,SE,146,2.0,16.0,48,0.00,,,0.00,626,HR-IXPWINDi_r2_v1.2.,2013-05-17 21:00:00,
2013-05-17 17:05:00,78.4,58.7,30.01,South,173,7.0,16.0,51,0.00,,,0.00,283,HR-IXPWINDi_r2_v1.2.,2013-05-17 21:05:00,
2013-05-17 17:10:00,78.0,56.1,30.01,SSE,149,1.0,9.0,47,0.00,,,0.00,332,HR-IXPWINDi_r2_v1.2.,2013-05-17 21:10:00,
2013-05-17 17:15:00,78.2,57.4,30.01,SSE,161,1.0,9.0,49,0.00,,,0.00,325,HR-IXPWINDi_r2_v1.2.,2013-05-17 21:15:00,
2013-05-17 17:20:00,78.2,55.1,30.01,ESE,116,6.0,17.0,45,0.00,,,0.00,281,HR-IXPWINDi_r2_v1.2.,2013-05-17 21:20:00,
2013-05-17 17:25:00,77.7,55.2,30.01,ESE,113,4.0,17.0,46,0.00,,,0.00,186,HR-IXPWINDi_r2_v1.2.,2013-05-17 21:25:00,
2013-05-17 17:31:00,77.3,55.5,30.01,South,190,7.0,15.0,47,0.00,,,0.00,218,HR-IXPWINDi_r2_v1.2.,2013-05-17 21:31:00,
2013-05-17 17:36:00,77.3,55.5,30.01,SE,144,9.0,15.0,47,0.00,,,0.00,181,HR-IXPWINDi_r2_v1.2.,2013-05-17 21:36:00,
2013-05-17 17:41:00,77.4,55.5,30.01,SSE,161,2.0,13.0,47,0.00,,,0.00,316,HR-IXPWINDi_r2_v1.2.,2013-05-17 21:41:00,
2013-05-17 17:46:00,77.8,55.9,30.01,South,177,6.0,11.0,47,0.00,,,0.00,381,HR-IXPWINDi_r2_v1.2.,2013-05-17 21:46:00,
2013-05-17 17:52:00,77.9,57.2,30.01,SE,140,6.0,8.0,49,0.00,,,0.00,371,HR-IXPWINDi_r2_v1.2.,2013-05-17 21:52:00,
2013-05-17 17:57:00,78.4,57.6,30.01,SSE,150,6.0,9.0,49,0.00,,,0.00,350,HR-IXPWINDi_r2_v1.2.,2013-05-17 21:57:00,
2013-05-17 18:02:00,77.8,56.5,30.01,SSE,148,2.0,13.0,48,0.00,,,0.00,209,HR-IXPWINDi_r2_v1.2.,2013-05-17 22:02:00,
2013-05-17 18:07:00,77.5,55.6,30.01,SW,217,2.0,13.0,47,0.00,,,0.00,132,HR-IXPWINDi_r2_v1.2.,2013-05-17 22:07:00,
2013-05-17 18:12:00,77.0,55.8,30.01,SW,218,5.0,12.0,48,0.00,,,0.00,91,HR-IXPWINDi_r2_v1.2.,2013-05-17 22:12:00,
2013-05-17 18:18:00,76.7,54.9,30.01,SE,144,12.0,19.0,47,0.00,,,0.00,77,HR-IXPWINDi_r2_v1.2.,2013-05-17 22:18:00,
2013-05-17 18:23:00,76.5,54.7,30.01,SSW,199,5.0,19.0,47,0.00,,,0.00,81,HR-IXPWINDi_r2_v1.2.,2013-05-17 22:23:00,
2013-05-17 18:28:00,76.4,55.2,30.01,SSW,207,5.0,14.0,48,0.00,,,0.00,91,HR-IXPWINDi_r2_v1.2.,2013-05-17 22:28:00,
2013-05-17 18:33:00,76.3,55.7,30.01,South,190,6.0,11.0,49,0.00,,,0.00,100,HR-IXPWINDi_r2_v1.2.,2013-05-17 22:33:00,
2013-05-17 18:38:00,76.3,55.7,30.01,South,176,4.0,11.0,49,0.00,,,0.00,107,HR-IXPWINDi_r2_v1.2.,2013-05-17 22:38:00,
2013-05-17 18:44:00,76.8,56.1,30.01,South,175,6.0,9.0,49,0.00,,,0.00,113,HR-IXPWINDi_r2_v1.2.,2013-05-17 22:44:00,
2013-05-17 18:49:00,76.7,55.5,30.01,South,179,5.0,12.0,48,0.00,,,0.00,109,HR-IXPWINDi_r2_v1.2.,2013-05-17 22:49:00,
2013-05-17 18:54:00,76.6,56.5,30.01,SSW,198,4.0,14.0,50,0.00,,,0.00,102,HR-IXPWINDi_r2_v1.2.,2013-05-17 22:54:00,
2013-05-17 18:59:00,76.3,56.2,30.02,ESE,114,9.0,14.0,50,0.00,,,0.00,100,HR-IXPWINDi_r2_v1.2.,2013-05-17 22:59:00,
2013-05-17 19:05:00,76.2,56.7,30.02,ESE,117,2.0,15.0,51,0.00,,,0.00,102,HR-IXPWINDi_r2_v1.2.,2013-05-17 23:05:00,
2013-05-17 19:10:00,76.1,57.1,30.02,SSW,211,8.0,15.0,52,0.00,,,0.00,93,HR-IXPWINDi_r2_v1.2.,2013-05-17 23:10:00,
2013-05-17 19:15:00,76.0,57.1,30.02,South,178,7.0,13.0,52,0.00,,,0.00,84,HR-IXPWINDi_r2_v1.2.,2013-05-17 23:15:00,
2013-05-17 19:20:00,75.8,57.4,30.02,SSE,163,6.0,11.0,53,0.00,,,0.00,72,HR-IXPWINDi_r2_v1.2.,2013-05-17 23:20:00,
2013-05-17 19:26:00,75.4,58.1,30.02,SW,220,11.0,17.0,55,0.00,,,0.00,58,HR-IXPWINDi_r2_v1.2.,2013-05-17 23:26:00,
2013-05-17 19:31:00,75.2,58.4,30.02,SW,221,2.0,17.0,56,0.00,,,0.00,44,HR-IXPWINDi_r2_v1.2.,2013-05-17 23:31:00,
2013-05-17 19:36:00,74.9,58.6,30.03,SSW,198,16.0,16.0,57,0.00,,,0.00,35,HR-IXPWINDi_r2_v1.2.,2013-05-17 23:36:00,
2013-05-17 19:41:00,74.7,58.9,30.02,SSE,150,6.0,17.0,58,0.00,,,0.00,32,HR-IXPWINDi_r2_v1.2.,2013-05-17 23:41:00,
2013-05-17 19:47:00,74.4,59.1,30.03,South,186,9.0,17.0,59,0.00,,,0.00,26,HR-IXPWINDi_r2_v1.2.,2013-05-17 23:47:00,
2013-05-17 19:52:00,74.1,59.3,30.03,South,180,3.0,15.0,60,0.00,,,0.00,23,HR-IXPWINDi_r2_v1.2.,2013-05-17 23:52:00,
2013-05-17 19:57:00,73.9,59.6,30.03,South,178,6.0,11.0,61,0.00,,,0.00,21,HR-IXPWINDi_r2_v1.2.,2013-05-17 23:57:00,
2013-05-17 20:02:00,73.7,59.4,30.03,SE,142,4.0,11.0,61,0.00,,,0.00,19,HR-IXPWINDi_r2_v1.2.,2013-05-18 00:02:00,
2013-05-17 20:07:00,73.4,59.5,30.03,SSE,167,8.0,15.0,62,0.00,,,0.00,14,HR-IXPWINDi_r2_v1.2.,2013-05-18 00:07:00,
2013-05-17 20:13:00,73.0,59.6,30.03,SE,128,4.0,15.0,63,0.00,,,0.00,12,HR-IXPWINDi_r2_v1.2.,2013-05-18 00:13:00,
2013-05-17 20:18:00,72.8,59.4,30.04,South,173,5.0,10.0,63,0.00,,,0.00,7,HR-IXPWINDi_r2_v1.2.,2013-05-18 00:18:00,
2013-05-17 20:23:00,72.4,59.5,30.03,SE,143,6.0,9.0,64,0.00,,,0.00,5,HR-IXPWINDi_r2_v1.2.,2013-05-18 00:23:00,
2013-05-17 20:28:00,72.3,59.4,30.04,ESE,118,7.0,13.0,64,0.00,,,0.00,0,HR-IXPWINDi_r2_v1.2.,2013-05-18 00:28:00,
2013-05-17 20:33:00,72.1,59.2,30.04,SE,137,7.0,13.0,64,0.00,,,0.00,0,HR-IXPWINDi_r2_v1.2.,2013-05-18 00:33:00,
2013-05-17 20:39:00,72.0,58.7,30.04,SE,130,7.0,15.0,63,0.00,,,0.00,0,HR-IXPWINDi_r2_v1.2.,2013-05-18 00:39:00,
2013-05-17 20:44:00,72.0,58.7,30.04,SSE,161,8.0,15.0,63,0.00,,,0.00,0,HR-IXPWINDi_r2_v1.2.,2013-05-18 00:44:00,
2013-05-17 20:49:00,71.9,58.1,30.04,SSW,205,0.0,12.0,62,0.00,,,0.00,0,HR-IXPWINDi_r2_v1.2.,2013-05-18 00:49:00,
2013-05-17 20:54:00,71.7,57.9,30.04,SSE,164,1.0,12.0,62,0.00,,,0.00,0,HR-IXPWINDi_r2_v1.2.,2013-05-18 00:54:00,
2013-05-17 20:59:00,71.6,57.4,30.05,ESE,121,7.0,12.0,61,0.00,,,0.00,0,HR-IXPWINDi_r2_v1.2.,2013-05-18 00:59:00,
2013-05-17 21:04:00,71.4,57.2,30.05,South,179,2.0,12.0,61,0.00,,,0.00,0,HR-IXPWINDi_r2_v1.2.,2013-05-18 01:04:00,
2013-05-17 21:10:00,71.3,57.1,30.05,SE,144,1.0,12.0,61,0.00,,,0.00,0,HR-IXPWINDi_r2_v1.2.,2013-05-18 01:10:00,
2013-05-17 21:15:00,71.1,56.9,30.05,SE,143,4.0,8.0,61,0.00,,,0.00,0,HR-IXPWINDi_r2_v1.2.,2013-05-18 01:15:00,
2013-05-17 21:20:00,71.0,57.3,30.05,ESE,118,2.0,8.0,62,0.00,,,0.00,0,HR-IXPWINDi_r2_v1.2.,2013-05-18 01:20:00,
2013-05-17 21:25:00,70.7,57.0,30.05,East,99,0.0,5.0,62,0.00,,,0.00,0,HR-IXPWINDi_r2_v1.2.,2013-05-18 01:25:00,
2013-05-17 21:30:00,70.1,57.3,30.05,SE,124,0.0,5.0,64,0.00,,,0.00,0,HR-IXPWINDi_r2_v1.2.,2013-05-18 01:30:00,
2013-05-17 21:35:00,69.9,57.1,30.05,ESE,119,2.0,6.0,64,0.00,,,0.00,0,HR-IXPWINDi_r2_v1.2.,2013-05-18 01:35:00,
2013-05-17 21:40:00,69.9,57.5,30.06,South,170,0.0,6.0,65,0.00,,,0.00,0,HR-IXPWINDi_r2_v1.2.,2013-05-18 01:40:00,
2013-05-17 21:45:00,69.9,57.1,30.06,ENE,63,0.0,6.0,64,0.00,,,0.00,0,HR-IXPWINDi_r2_v1.2.,2013-05-18 01:45:00,
2013-05-17 21:51:00,69.5,57.2,30.06,East,80,0.0,6.0,65,0.00,,,0.00,0,HR-IXPWINDi_r2_v1.2.,2013-05-18 01:51:00,
2013-05-17 21:56:00,69.2,57.3,30.06,ENE,68,0.0,4.0,66,0.00,,,0.00,0,HR-IXPWINDi_r2_v1.2.,2013-05-18 01:56:00,
2013-05-17 22:01:00,68.5,57.1,30.06,NNW,342,2.0,4.0,67,0.00,,,0.00,0,HR-IXPWINDi_r2_v1.2.,2013-05-18 02:01:00,
2013-05-17 22:06:00,67.7,57.5,30.07,North,360,0.0,4.0,70,0.00,,,0.00,0,HR-IXPWINDi_r2_v1.2.,2013-05-18 02:06:00,
2013-05-17 22:11:00,67.9,57.3,30.07,North,5,3.0,6.0,69,0.00,,,0.00,0,HR-IXPWINDi_r2_v1.2.,2013-05-18 02:11:00,
2013-05-17 22:17:00,67.5,57.3,30.07,North,355,1.0,6.0,70,0.00,,,0.00,0,HR-IXPWINDi_r2_v1.2.,2013-05-18 02:17:00,
2013-05-17 22:22:00,67.5,57.3,30.07,NNW,343,3.0,5.0,70,0.00,,,0.00,0,HR-IXPWINDi_r2_v1.2.,2013-05-18 02:22:00,
2013-05-17 22:27:00,67.4,57.2,30.07,NNE,33,1.0,6.0,70,0.00,,,0.00,0,HR-IXPWINDi_r2_v1.2.,2013-05-18 02:27:00,
2013-05-17 22:32:00,67.5,56.9,30.07,NNW,342,3.0,6.0,69,0.00,,,0.00,0,HR-IXPWINDi_r2_v1.2.,2013-05-18 02:32:00,
2013-05-17 22:37:00,67.5,56.5,30.07,North,355,1.0,6.0,68,0.00,,,0.00,0,HR-IXPWINDi_r2_v1.2.,2013-05-18 02:37:00,
2013-05-17 22:43:00,67.6,56.2,30.07,NE,40,1.0,5.0,67,0.00,,,0.00,0,HR-IXPWINDi_r2_v1.2.,2013-05-18 02:43:00,
2013-05-17 22:48:00,67.9,56.5,30.07,North,355,2.0,5.0,67,0.00,,,0.00,0,HR-IXPWINDi_r2_v1.2.,2013-05-18 02:48:00,
2013-05-17 22:53:00,67.8,56.4,30.07,NE,46,3.0,7.0,67,0.00,,,0.00,0,HR-IXPWINDi_r2_v1.2.,2013-05-18 02:53:00,
2013-05-17 22:58:00,67.8,56.4,30.08,ENE,69,3.0,7.0,67,0.00,,,0.00,0,HR-IXPWINDi_r2_v1.2.,2013-05-18 02:58:00,
2013-05-17 23:03:00,67.4,56.4,30.08,ENE,70,0.0,5.0,68,0.00,,,0.00,0,HR-IXPWINDi_r2_v1.2.,2013-05-18 03:03:00,
2013-05-17 23:08:00,67.2,55.8,30.08,NE,56,0.0,4.0,67,0.00,,,0.00,0,HR-IXPWINDi_r2_v1.2.,2013-05-18 03:08:00,
2013-05-17 23:13:00,66.9,55.9,30.08,NNW,328,0.0,3.0,68,0.00,,,0.00,0,HR-IXPWINDi_r2_v1.2.,2013-05-18 03:13:00,
2013-05-17 23:19:00,67.9,56.1,30.08,ESE,106,0.0,6.0,66,0.00,,,0.00,0,HR-IXPWINDi_r2_v1.2.,2013-05-18 03:19:00,
2013-05-17 23:24:00,67.6,56.2,30.08,ESE,106,4.0,6.0,67,0.00,,,0.00,0,HR-IXPWINDi_r2_v1.2.,2013-05-18 03:24:00,
2013-05-17 23:29:00,66.5,56.4,30.08,North,10,3.0,4.0,70,0.00,,,0.00,0,HR-IXPWINDi_r2_v1.2.,2013-05-18 03:29:00,
2013-05-17 23:34:00,66.1,56.4,30.08,North,9,0.0,4.0,71,0.00,,,0.00,0,HR-IXPWINDi_r2_v1.2.,2013-05-18 03:34:00,
2013-05-17 23:39:00,66.0,56.3,30.08,North,5,0.0,4.0,71,0.00,,,0.00,0,HR-IXPWINDi_r2_v1.2.,2013-05-18 03:39:00,
2013-05-17 23:44:00,66.1,56.8,30.08,North,360,3.0,5.0,72,0.00,,,0.00,0,HR-IXPWINDi_r2_v1.2.,2013-05-18 03:44:00,
2013-05-17 23:49:00,67.2,57.0,30.07,ENE,69,2.0,5.0,70,0.00,,,0.00,0,HR-IXPWINDi_r2_v1.2.,2013-05-18 03:49:00,
2013-05-17 23:55:00,67.0,56.8,30.07,ESE,114,0.0,6.0,70,0.00,,,0.00,0,HR-IXPWINDi_r2_v1.2.,2013-05-18 03:55:00,